Alto Santo, Brazil
Current Conditions -  °F | °C
As of 4:00 AM on Saturday 25 Oct 2014 (Local Time) from SBFZ Reporting Station
Broken Clouds Broken Clouds  
Wind Chill: 77°   Ceiling: 1700
Heat Index: 79°   Visibility: 6mi
Dew Point: 68°   Wind: 16mph
Humidity: 74%   Direction: 120°ESE
Pressure: 29.83"   Gusts: NA
Location:  5.52°S, 38.27°W
Report Text: SBFZ 250700Z 12014KT 9999 BKN017 25/20 Q1010
Loading
Personal Weather Stations






























Interactive Weather Map
Tropical Storm Tracking
New forecast layout! Learn more

10-Day Weather Forecast

Advertisements
Track Severe Weather on mobile